Time;durP1;ratioP1;P1;durP2;ratioP2;P2;SDS_P1;SDS_P2;PMS_P1;PMS_P2;Temp;Humidity;BMP_temperature;BMP_pressure;BME280_temperature;BME280_humidity;BME280_pressure;Samples;Min_cycle;Max_cycle;Signal;HPM_P1;HPM_P2
2022/10/09 00:01:04;;;;;;;3.97;3.50;;;17.70;84.10;;;;;;5050735;28;20676;-66
2022/10/09 00:03:31;;;;;;;5.07;3.97;;;17.70;84.00;;;;;;5051947;28;20536;-65
2022/10/09 00:05:57;;;;;;;4.43;3.97;;;17.70;84.10;;;;;;5054710;28;20171;-67
2022/10/09 00:08:23;;;;;;;4.28;3.72;;;17.70;84.10;;;;;;5037963;28;20564;-67
2022/10/09 00:10:48;;;;;;;5.57;4.07;;;17.70;84.20;;;;;;5038131;28;20229;-67
2022/10/09 00:13:14;;;;;;;3.80;3.42;;;17.70;84.10;;;;;;5037992;28;20197;-65
2022/10/09 00:15:43;;;;;;;3.75;3.38;;;17.70;84.20;;;;;;5054603;28;20182;-66
2022/10/09 00:18:12;;;;;;;4.88;3.60;;;17.70;84.20;;;;;;5037562;28;20225;-66
2022/10/09 00:20:43;;;;;;;4.30;3.60;;;17.70;84.40;;;;;;5037504;28;20213;-67
2022/10/09 00:23:10;;;;;;;3.88;3.47;;;17.70;84.30;;;;;;5059985;28;20182;-66
2022/10/09 00:25:36;;;;;;;4.00;3.70;;;17.70;84.30;;;;;;5049519;28;20177;-67
2022/10/09 00:28:03;;;;;;;4.50;3.78;;;17.70;84.30;;;;;;5074384;28;20217;-66
2022/10/09 00:30:30;;;;;;;4.90;3.60;;;17.70;84.30;;;;;;5057324;28;20221;-67
2022/10/09 00:32:56;;;;;;;4.30;3.33;;;17.70;84.30;;;;;;5057400;28;20280;-67
2022/10/09 00:35:23;;;;;;;5.15;3.78;;;17.70;84.30;;;;;;5074169;28;20205;-67
2022/10/09 00:37:49;;;;;;;3.88;3.47;;;17.70;84.20;;;;;;5057299;28;20181;-67
2022/10/09 00:40:15;;;;;;;3.80;3.40;;;17.70;84.40;;;;;;5073863;28;20243;-67
2022/10/09 00:42:44;;;;;;;3.40;3.10;;;17.70;84.30;;;;;;5057427;28;20272;-66
2022/10/09 00:45:19;;;;;;;3.53;3.22;;;17.70;84.40;;;;;;5074353;28;20181;-67
2022/10/09 00:47:54;;;;;;;4.18;3.67;;;17.70;84.40;;;;;;5074020;28;20691;-67
2022/10/09 00:50:29;;;;;;;4.32;3.15;;;17.70;84.50;;;;;;5074040;28;20184;-67
2022/10/09 00:52:59;;;;;;;4.05;3.35;;;17.70;84.40;;;;;;5071214;28;20205;-65
2022/10/09 00:55:28;;;;;;;3.95;3.40;;;17.70;84.50;;;;;;5042182;28;20274;-67
2022/10/09 00:57:58;;;;;;;3.13;2.80;;;17.70;84.50;;;;;;5017371;28;20298;-67
2022/10/09 01:00:25;;;;;;;3.45;2.83;;;17.70;84.50;;;;;;5033655;28;20183;-66
2022/10/09 01:02:53;;;;;;;4.85;3.00;;;17.70;84.50;;;;;;5033688;28;20179;-67
2022/10/09 01:05:27;;;;;;;3.08;2.78;;;17.70;84.50;;;;;;5017567;28;20657;-67
2022/10/09 01:08:08;;;;;;;3.38;2.90;;;17.70;84.60;;;;;;5017440;28;20712;-67
2022/10/09 01:10:56;;;;;;;3.20;2.70;;;17.70;84.60;;;;;;5050243;28;20205;-66
2022/10/09 01:13:50;;;;;;;3.63;2.70;;;17.70;84.50;;;;;;5033475;28;20662;-66
2022/10/09 01:16:43;;;;;;;3.05;2.80;;;17.70;84.70;;;;;;5032917;28;20195;-66
2022/10/09 01:19:40;;;;;;;3.17;2.60;;;17.70;84.60;;;;;;5050023;28;20694;-66
2022/10/09 01:22:44;;;;;;;2.67;2.47;;;17.70;84.60;;;;;;5050143;28;20195;-66
2022/10/09 01:25:31;;;;;;;3.08;2.80;;;17.70;84.60;;;;;;5075969;28;20323;-67
2022/10/09 01:28:00;;;;;;;3.25;2.50;;;17.70;84.60;;;;;;5073113;28;20221;-67
2022/10/09 01:30:26;;;;;;;3.13;2.83;;;17.70;84.60;;;;;;5056262;28;20610;-66
2022/10/09 01:32:54;;;;;;;4.68;2.72;;;17.70;84.60;;;;;;5056609;28;20673;-66
2022/10/09 01:35:21;;;;;;;3.22;2.60;;;17.70;84.70;;;;;;5056418;28;20178;-66
2022/10/09 01:37:51;;;;;;;3.17;2.83;;;17.70;84.70;;;;;;5072882;28;20190;-67
2022/10/09 01:40:17;;;;;;;2.42;2.20;;;17.70;84.80;;;;;;5056296;28;20209;-67
2022/10/09 01:42:45;;;;;;;2.88;2.63;;;17.70;84.70;;;;;;5072970;28;20186;-67
2022/10/09 01:45:14;;;;;;;3.42;2.50;;;17.70;84.80;;;;;;5073002;28;20231;-67
2022/10/09 01:47:39;;;;;;;2.97;2.67;;;17.60;84.50;;;;;;5072615;28;20220;-66
2022/10/09 01:50:23;;;;;;;3.85;2.55;;;17.70;84.80;;;;;;5055934;28;20178;-67
2022/10/09 01:52:55;;;;;;;2.58;2.38;;;17.70;84.70;;;;;;5072057;28;20169;-67
2022/10/09 01:55:55;;;;;;;3.13;2.40;;;17.70;84.70;;;;;;5035955;28;20209;-67
2022/10/09 01:58:47;;;;;;;2.70;2.50;;;17.70;84.70;;;;;;5036201;28;20627;-67
2022/10/09 02:01:23;;;;;;;2.90;2.25;;;17.60;84.50;;;;;;5052394;28;20184;-67
2022/10/09 02:03:52;;;;;;;3.00;2.58;;;17.60;84.60;;;;;;5036135;28;20190;-67
2022/10/09 02:06:19;;;;;;;2.60;2.35;;;17.70;84.80;;;;;;5053907;28;20193;-67
2022/10/09 02:08:52;;;;;;;3.42;2.30;;;17.70;84.70;;;;;;5035815;28;20202;-67
2022/10/09 02:11:18;;;;;;;2.75;2.30;;;17.70;84.80;;;;;;5053440;28;20167;-67
2022/10/09 02:13:48;;;;;;;3.03;1.90;;;17.70;84.70;;;;;;5052381;28;20203;-67
2022/10/09 02:16:46;;;;;;;3.08;2.60;;;17.70;84.70;;;;;;5049249;28;20263;-67
2022/10/09 02:19:27;;;;;;;2.63;2.10;;;17.70;84.70;;;;;;5064427;28;20766;-66
2022/10/09 02:22:20;;;;;;;2.42;2.00;;;17.60;84.60;;;;;;5063027;28;20198;-66
2022/10/09 02:24:46;;;;;;;3.90;2.35;;;17.70;84.70;;;;;;5052953;28;20241;-67
2022/10/09 02:27:13;;;;;;;1.98;1.88;;;17.60;84.60;;;;;;5046860;28;20236;-67
2022/10/09 02:29:42;;;;;;;3.42;2.10;;;17.60;84.60;;;;;;5055391;28;20213;-67
2022/10/09 02:32:09;;;;;;;3.53;2.10;;;17.60;84.50;;;;;;5071887;28;20185;-67
2022/10/09 02:34:35;;;;;;;2.40;2.20;;;17.60;84.50;;;;;;5055214;28;20245;-65
2022/10/09 02:37:01;;;;;;;2.13;1.92;;;17.70;84.60;;;;;;5073132;28;20259;-67
2022/10/09 02:39:27;;;;;;;2.55;2.22;;;17.60;84.50;;;;;;5055130;28;20248;-67
2022/10/09 02:41:53;;;;;;;2.42;2.22;;;17.60;84.50;;;;;;5055307;28;20254;-67
2022/10/09 02:44:18;;;;;;;2.20;2.10;;;17.70;84.70;;;;;;5071655;28;20671;-67
2022/10/09 02:46:44;;;;;;;2.42;2.10;;;17.70;84.70;;;;;;5055305;28;20202;-67
2022/10/09 02:49:10;;;;;;;2.55;2.35;;;17.70;84.70;;;;;;5054951;28;20242;-67
2022/10/09 02:51:36;;;;;;;2.15;2.00;;;17.60;84.60;;;;;;5054810;28;20185;-66
2022/10/09 02:54:03;;;;;;;1.90;1.70;;;17.70;84.70;;;;;;5039983;28;20183;-67
2022/10/09 02:56:29;;;;;;;2.83;2.40;;;17.60;84.40;;;;;;5046250;28;20190;-67
2022/10/09 02:58:55;;;;;;;2.15;1.95;;;17.60;84.40;;;;;;5071327;28;20204;-66
2022/10/09 03:01:21;;;;;;;3.47;2.70;;;17.70;84.60;;;;;;5054924;28;20181;-66
2022/10/09 03:03:47;;;;;;;2.30;2.10;;;17.60;84.30;;;;;;5071309;28;20186;-66
2022/10/09 03:06:17;;;;;;;1.90;1.75;;;17.60;84.30;;;;;;5088333;28;20261;-67
2022/10/09 03:08:46;;;;;;;2.30;2.10;;;17.60;84.50;;;;;;5054621;28;20201;-68
2022/10/09 03:11:14;;;;;;;2.17;1.98;;;17.60;84.40;;;;;;5054781;28;20170;-67
2022/10/09 03:13:40;;;;;;;2.10;1.90;;;17.60;84.30;;;;;;5071224;28;20605;-67
2022/10/09 03:16:10;;;;;;;2.28;2.08;;;17.60;84.40;;;;;;5072421;28;20186;-67
2022/10/09 03:18:37;;;;;;;2.60;2.40;;;17.60;84.30;;;;;;5071123;28;20267;-67
2022/10/09 03:21:08;;;;;;;2.10;1.90;;;17.60;84.40;;;;;;5070887;28;20217;-67
2022/10/09 03:23:35;;;;;;;2.38;1.80;;;17.60;84.30;;;;;;5063061;28;20185;-67
2022/10/09 03:26:05;;;;;;;3.63;2.17;;;17.60;84.20;;;;;;5062840;28;20190;-67
2022/10/09 03:28:35;;;;;;;2.70;1.90;;;17.60;84.30;;;;;;5071215;28;20229;-67
2022/10/09 03:31:01;;;;;;;2.20;2.00;;;17.60;84.30;;;;;;5047808;28;20185;-67
2022/10/09 03:33:27;;;;;;;2.40;2.13;;;17.60;84.30;;;;;;5062919;28;20251;-66
2022/10/09 03:35:53;;;;;;;2.97;2.05;;;17.60;84.10;;;;;;5070959;28;20637;-67
2022/10/09 03:38:19;;;;;;;2.30;2.10;;;17.60;84.30;;;;;;5070829;28;20202;-67
2022/10/09 03:40:44;;;;;;;2.03;1.70;;;17.60;84.40;;;;;;5071077;28;20213;-67
2022/10/09 03:43:11;;;;;;;2.47;1.70;;;17.60;84.10;;;;;;5070917;28;20186;-67
2022/10/09 03:45:41;;;;;;;2.55;2.22;;;17.60;84.10;;;;;;5072119;28;20676;-67
2022/10/09 03:48:10;;;;;;;2.40;2.20;;;17.60;84.10;;;;;;5054317;28;20221;-67
2022/10/09 03:50:40;;;;;;;2.10;1.90;;;17.60;84.20;;;;;;5070650;28;20185;-67
2022/10/09 03:53:08;;;;;;;2.55;2.00;;;17.60;84.10;;;;;;5068552;28;20203;-66
2022/10/09 03:55:34;;;;;;;2.38;1.73;;;17.60;84.10;;;;;;5058965;28;20320;-66
2022/10/09 03:58:00;;;;;;;2.53;1.90;;;17.60;84.10;;;;;;5051019;28;20298;-67
2022/10/09 04:00:26;;;;;;;3.42;2.05;;;17.60;84.00;;;;;;5052241;28;20324;-66
2022/10/09 04:02:52;;;;;;;3.05;2.15;;;17.60;84.20;;;;;;5034191;28;20190;-67
2022/10/09 04:05:18;;;;;;;2.25;2.00;;;17.60;84.10;;;;;;5050994;28;20185;-67
2022/10/09 04:07:44;;;;;;;2.10;1.77;;;17.60;84.00;;;;;;5050559;28;20221;-66
2022/10/09 04:10:10;;;;;;;1.92;1.70;;;17.60;84.00;;;;;;5050977;28;20190;-66
2022/10/09 04:12:37;;;;;;;1.90;1.70;;;17.60;84.00;;;;;;5033716;28;20201;-67
2022/10/09 04:15:04;;;;;;;1.95;1.70;;;17.60;84.00;;;;;;5050625;28;20179;-67
2022/10/09 04:17:29;;;;;;;3.25;1.80;;;17.60;84.00;;;;;;5050381;28;20575;-67
2022/10/09 04:19:55;;;;;;;2.70;2.30;;;17.60;83.90;;;;;;5073344;23;20245;-70
2022/10/09 04:22:21;;;;;;;2.72;2.00;;;17.60;84.00;;;;;;5053352;28;20170;-69
2022/10/09 04:24:47;;;;;;;1.80;1.70;;;17.60;83.80;;;;;;5070716;28;20198;-70
2022/10/09 04:27:13;;;;;;;2.08;1.67;;;17.60;83.90;;;;;;5057340;28;20214;-68
2022/10/09 04:29:39;;;;;;;3.22;1.95;;;17.60;83.90;;;;;;5047251;28;20210;-70
2022/10/09 04:32:05;;;;;;;2.25;1.77;;;17.60;83.90;;;;;;5063988;28;20274;-70
2022/10/09 04:34:31;;;;;;;2.15;1.95;;;17.60;83.90;;;;;;5030594;28;20191;-70
2022/10/09 04:36:57;;;;;;;2.67;1.90;;;17.60;83.90;;;;;;5031856;28;20190;-70
2022/10/09 04:39:23;;;;;;;2.40;1.85;;;17.60;83.90;;;;;;5063687;28;20674;-70
2022/10/09 04:41:48;;;;;;;2.20;2.00;;;17.60;83.80;;;;;;5030186;28;20187;-70
2022/10/09 04:44:14;;;;;;;2.67;2.15;;;17.60;83.80;;;;;;5048449;28;20187;-69
2022/10/09 04:46:40;;;;;;;2.40;2.20;;;17.60;83.80;;;;;;5050333;28;20202;-69
2022/10/09 04:49:06;;;;;;;2.35;1.92;;;17.60;83.80;;;;;;5050430;28;20610;-70
2022/10/09 04:51:31;;;;;;;2.00;1.50;;;17.60;83.90;;;;;;5051794;28;20182;-70
2022/10/09 04:53:57;;;;;;;2.10;1.85;;;17.60;83.80;;;;;;5053354;28;20202;-71
2022/10/09 04:56:23;;;;;;;2.85;2.13;;;17.60;83.90;;;;;;5037049;28;20273;-70
2022/10/09 04:58:49;;;;;;;1.83;1.63;;;17.60;83.80;;;;;;5053831;28;20202;-71
2022/10/09 05:01:21;;;;;;;1.80;1.70;;;17.60;83.70;;;;;;5053654;28;20213;-70
2022/10/09 05:03:48;;;;;;;2.05;1.85;;;17.60;83.60;;;;;;5037383;28;20706;-70
2022/10/09 05:06:15;;;;;;;2.83;2.10;;;17.60;83.60;;;;;;5053931;28;20191;-70
2022/10/09 05:08:42;;;;;;;1.73;1.63;;;17.60;83.60;;;;;;5054941;28;20230;-69
2022/10/09 05:11:15;;;;;;;2.58;1.90;;;17.60;83.60;;;;;;5036671;28;20289;-70
2022/10/09 05:13:45;;;;;;;2.05;1.95;;;17.60;83.60;;;;;;5053826;28;20194;-70
2022/10/09 05:16:16;;;;;;;2.30;2.10;;;17.60;83.60;;;;;;5036848;28;20182;-70
2022/10/09 05:18:51;;;;;;;2.15;1.92;;;17.60;83.60;;;;;;5054477;28;20259;-70
2022/10/09 05:21:19;;;;;;;2.20;1.83;;;17.60;83.50;;;;;;5036907;28;20194;-69
2022/10/09 05:23:45;;;;;;;1.95;1.83;;;17.60;83.60;;;;;;5053818;28;20190;-69
2022/10/09 05:26:15;;;;;;;2.10;1.90;;;17.60;83.60;;;;;;5053454;28;20665;-70
2022/10/09 05:28:41;;;;;;;2.33;1.65;;;17.60;83.50;;;;;;5053225;28;20645;-70
2022/10/09 05:31:11;;;;;;;2.80;2.00;;;17.60;83.50;;;;;;5036425;28;20186;-71
2022/10/09 05:33:36;;;;;;;2.83;2.08;;;17.60;83.50;;;;;;5054402;28;20182;-70
2022/10/09 05:36:04;;;;;;;2.05;1.85;;;17.50;83.50;;;;;;5053167;28;20187;-70
2022/10/09 05:38:31;;;;;;;1.92;1.83;;;17.60;83.60;;;;;;5052974;28;20220;-70
2022/10/09 05:41:04;;;;;;;1.70;1.60;;;17.60;83.60;;;;;;5053472;28;20187;-70
2022/10/09 05:43:37;;;;;;;1.92;1.73;;;17.60;83.60;;;;;;5052753;28;20193;-70
2022/10/09 05:46:11;;;;;;;2.00;1.77;;;17.60;83.40;;;;;;5069557;28;20532;-70
2022/10/09 05:48:42;;;;;;;1.60;1.50;;;17.60;83.60;;;;;;5069356;28;20222;-70
2022/10/09 05:51:19;;;;;;;2.00;1.77;;;17.60;84.20;;;;;;5069300;28;20182;-69
2022/10/09 05:53:46;;;;;;;2.53;1.85;;;17.60;83.40;;;;;;5067705;28;20214;-70
2022/10/09 05:56:17;;;;;;;2.42;2.10;;;17.60;83.40;;;;;;5032996;28;20261;-70
2022/10/09 05:58:48;;;;;;;1.83;1.70;;;17.60;83.40;;;;;;5032860;28;20218;-70
2022/10/09 06:01:13;;;;;;;2.03;1.83;;;17.60;83.40;;;;;;5032607;28;20180;-70
2022/10/09 06:03:39;;;;;;;2.28;1.95;;;17.60;83.50;;;;;;5016269;28;20186;-70
2022/10/09 06:06:07;;;;;;;2.72;1.83;;;17.60;83.30;;;;;;5016446;28;20235;-71
2022/10/09 06:08:36;;;;;;;2.05;1.83;;;17.50;83.30;;;;;;5026674;28;20233;-70
2022/10/09 06:11:31;;;;;;;2.10;1.70;;;17.60;83.30;;;;;;5049679;28;20183;-70
2022/10/09 06:14:00;;;;;;;2.00;1.70;;;17.60;83.40;;;;;;5052231;28;20202;-70
2022/10/09 06:16:29;;;;;;;1.85;1.63;;;17.60;84.00;;;;;;5035479;28;20224;-71
2022/10/09 06:18:56;;;;;;;1.92;1.70;;;17.60;83.10;;;;;;5052131;28;20206;-71
2022/10/09 06:21:27;;;;;;;2.13;1.80;;;17.60;83.20;;;;;;5068711;28;20183;-69
2022/10/09 06:23:57;;;;;;;2.20;1.98;;;17.60;83.10;;;;;;5034773;28;20222;-71
2022/10/09 06:26:27;;;;;;;2.10;1.90;;;17.60;83.10;;;;;;5050812;28;20262;-71
2022/10/09 06:28:54;;;;;;;1.73;1.63;;;17.50;83.00;;;;;;5061153;28;20274;-70
2022/10/09 06:31:24;;;;;;;1.98;1.77;;;17.50;83.00;;;;;;5057694;28;20175;-71
2022/10/09 06:33:52;;;;;;;1.88;1.67;;;17.60;83.20;;;;;;5035681;28;20192;-70
2022/10/09 06:36:31;;;;;;;2.08;1.88;;;17.60;83.00;;;;;;5034726;28;20182;-71
2022/10/09 06:39:00;;;;;;;1.80;1.70;;;17.60;83.10;;;;;;5068381;28;20205;-71
2022/10/09 06:41:28;;;;;;;2.50;2.00;;;17.60;83.00;;;;;;5035392;28;20178;-69
2022/10/09 06:44:06;;;;;;;2.08;1.73;;;17.60;83.00;;;;;;5033452;28;20175;-70
2022/10/09 06:46:39;;;;;;;2.22;1.92;;;17.60;83.10;;;;;;5048553;28;20175;-70
2022/10/09 06:49:07;;;;;;;1.88;1.65;;;17.60;83.10;;;;;;5048219;28;20311;-70
2022/10/09 06:51:34;;;;;;;1.95;1.83;;;17.60;82.90;;;;;;5033957;28;20718;-71
2022/10/09 06:54:03;;;;;;;2.88;1.88;;;17.60;82.90;;;;;;5068249;28;20189;-72
2022/10/09 06:56:31;;;;;;;2.13;1.90;;;17.60;82.80;;;;;;5068128;28;20183;-71
2022/10/09 06:59:03;;;;;;;1.90;1.70;;;17.60;82.60;;;;;;5068415;28;20232;-70
2022/10/09 07:01:30;;;;;;;2.40;2.05;;;17.60;82.70;;;;;;5051531;28;20191;-69
2022/10/09 07:04:13;;;;;;;1.95;1.75;;;17.60;82.60;;;;;;5034559;28;20653;-71
2022/10/09 07:06:46;;;;;;;2.55;1.92;;;17.60;82.60;;;;;;5048747;28;20228;-70
2022/10/09 07:09:14;;;;;;;1.85;1.75;;;17.70;82.50;;;;;;5051896;28;20224;-70
2022/10/09 07:11:44;;;;;;;2.53;2.17;;;17.70;82.50;;;;;;5034827;28;20189;-71
2022/10/09 07:14:12;;;;;;;2.35;1.98;;;17.70;82.50;;;;;;5051799;28;20265;-70
2022/10/09 07:16:42;;;;;;;1.50;1.40;;;17.60;82.20;;;;;;5067966;28;20564;-70
2022/10/09 07:19:09;;;;;;;2.03;1.83;;;17.70;82.30;;;;;;5067734;28;20298;-71
2022/10/09 07:21:38;;;;;;;2.53;2.10;;;17.70;82.10;;;;;;5034341;28;20175;-71
2022/10/09 07:24:05;;;;;;;2.20;2.10;;;17.70;82.20;;;;;;5051006;28;20182;-71
2022/10/09 07:26:35;;;;;;;3.10;2.10;;;17.70;82.10;;;;;;5067667;28;20649;-70
2022/10/09 07:29:02;;;;;;;2.97;2.00;;;17.70;82.30;;;;;;5051024;28;20205;-69
2022/10/09 07:31:28;;;;;;;2.65;2.10;;;17.70;82.30;;;;;;5050636;28;20190;-71
2022/10/09 07:33:57;;;;;;;2.55;1.90;;;17.70;82.20;;;;;;5068053;28;20194;-71
2022/10/09 07:36:24;;;;;;;1.98;1.77;;;17.70;82.10;;;;;;5034417;28;20253;-71
2022/10/09 07:38:56;;;;;;;2.90;1.73;;;17.70;82.10;;;;;;5034519;28;20202;-70
2022/10/09 07:41:25;;;;;;;2.20;2.00;;;17.70;82.10;;;;;;5031469;28;20192;-70
2022/10/09 07:43:51;;;;;;;2.08;1.88;;;17.70;82.10;;;;;;5034161;28;20210;-71
2022/10/09 07:46:19;;;;;;;2.63;1.77;;;17.70;81.90;;;;;;5067895;28;20267;-69
2022/10/09 07:48:45;;;;;;;2.35;2.08;;;17.70;81.70;;;;;;5067580;28;20225;-70
2022/10/09 07:51:27;;;;;;;2.63;2.28;;;17.80;81.70;;;;;;5067739;28;20184;-70
2022/10/09 07:53:55;;;;;;;2.35;2.08;;;17.80;81.50;;;;;;5034721;28;20175;-70
2022/10/09 07:56:32;;;;;;;2.30;1.80;;;17.80;81.50;;;;;;5051997;28;20174;-71
2022/10/09 07:59:17;;;;;;;1.77;1.67;;;17.80;81.40;;;;;;5034331;28;20205;-71
2022/10/09 08:01:43;;;;;;;2.35;1.88;;;17.80;81.20;;;;;;5033867;28;20179;-71
2022/10/09 08:04:09;;;;;;;2.03;1.80;;;17.80;81.40;;;;;;5052029;28;20185;-71
2022/10/09 08:06:35;;;;;;;2.13;1.90;;;17.80;81.50;;;;;;5034028;28;20273;-72
2022/10/09 08:09:04;;;;;;;4.18;1.95;;;17.80;81.50;;;;;;5050343;28;20260;-72
2022/10/09 08:11:30;;;;;;;2.20;2.00;;;17.80;81.50;;;;;;5050474;28;20178;-72
2022/10/09 08:13:57;;;;;;;2.95;2.13;;;17.80;81.30;;;;;;5040437;28;20205;-72
2022/10/09 08:16:24;;;;;;;2.25;2.05;;;17.90;81.30;;;;;;5030446;28;20178;-72
2022/10/09 08:18:57;;;;;;;3.58;1.98;;;17.90;81.50;;;;;;5049376;28;20218;-72
2022/10/09 08:21:26;;;;;;;2.60;1.85;;;17.90;81.60;;;;;;5051492;28;20167;-71
2022/10/09 08:23:57;;;;;;;2.03;1.83;;;17.90;81.40;;;;;;5067282;28;20607;-71
2022/10/09 08:26:27;;;;;;;2.10;1.90;;;17.90;81.40;;;;;;5070271;28;20220;-72
2022/10/09 08:29:02;;;;;;;1.88;1.65;;;17.90;81.40;;;;;;5054146;28;20203;-72
2022/10/09 08:31:30;;;;;;;3.08;1.73;;;17.90;81.20;;;;;;5055482;28;20230;-71
2022/10/09 08:33:59;;;;;;;2.85;2.10;;;17.90;81.20;;;;;;5054394;28;20716;-71
2022/10/09 08:36:25;;;;;;;1.90;1.80;;;17.90;81.20;;;;;;5055489;28;20175;-71
2022/10/09 08:38:52;;;;;;;2.03;1.83;;;17.90;81.30;;;;;;5037945;28;20277;-71
2022/10/09 08:41:39;;;;;;;2.25;2.05;;;17.90;81.30;;;;;;5055181;28;20606;-71
2022/10/09 08:44:47;;;;;;;2.22;2.03;;;17.90;81.20;;;;;;5054165;28;20185;-71
2022/10/09 08:47:30;;;;;;;3.05;1.85;;;17.90;81.30;;;;;;5037660;28;20214;-71
2022/10/09 08:50:09;;;;;;;2.13;1.88;;;17.90;81.30;;;;;;5054332;28;20210;-72
2022/10/09 08:53:25;;;;;;;3.10;2.08;;;17.90;81.20;;;;;;5037418;28;20307;-71
2022/10/09 08:56:02;;;;;;;2.50;2.25;;;17.90;81.10;;;;;;5037172;28;20556;-71
2022/10/09 08:58:35;;;;;;;1.80;1.70;;;17.90;81.20;;;;;;5037406;28;20206;-71
2022/10/09 09:01:18;;;;;;;2.50;2.00;;;17.90;81.10;;;;;;5053727;28;20185;-71
2022/10/09 09:04:17;;;;;;;2.10;1.90;;;17.90;81.10;;;;;;5070395;28;20240;-70
2022/10/09 09:07:01;;;;;;;3.55;2.58;;;17.90;81.20;;;;;;5053983;28;20214;-71
2022/10/09 09:09:50;;;;;;;2.28;1.88;;;17.90;81.00;;;;;;5055133;28;20213;-71
2022/10/09 09:12:42;;;;;;;4.22;1.80;;;17.90;81.00;;;;;;5054813;28;20205;-71
2022/10/09 09:15:45;;;;;;;2.20;2.00;;;17.90;81.00;;;;;;5053494;28;20190;-71
2022/10/09 09:19:27;;;;;;;2.35;1.95;;;17.90;81.20;;;;;;5053528;28;20212;-69
2022/10/09 09:21:53;;;;;;;2.22;1.70;;;17.90;81.00;;;;;;4971869;28;20194;-71
2022/10/09 09:24:36;;;;;;;2.55;2.00;;;17.90;81.00;;;;;;4973466;28;20194;-71
2022/10/09 09:27:12;;;;;;;2.63;2.10;;;17.90;80.90;;;;;;5000902;28;20227;-71
2022/10/09 09:29:56;;;;;;;2.30;1.90;;;17.90;81.00;;;;;;5049946;28;20228;-71
2022/10/09 09:32:26;;;;;;;2.38;2.00;;;17.90;81.00;;;;;;5036581;28;20198;-71
2022/10/09 09:35:25;;;;;;;1.85;1.75;;;17.90;80.90;;;;;;5036807;28;20186;-71
2022/10/09 09:37:52;;;;;;;2.00;1.83;;;17.90;81.00;;;;;;5038108;28;20206;-71
2022/10/09 09:40:19;;;;;;;1.75;1.65;;;17.90;80.80;;;;;;5036656;28;20213;-71
2022/10/09 09:42:46;;;;;;;1.88;1.77;;;17.90;81.00;;;;;;5069583;28;20236;-71
2022/10/09 09:45:25;;;;;;;2.38;1.75;;;17.90;80.90;;;;;;5069904;28;20187;-71
2022/10/09 09:48:14;;;;;;;2.17;1.92;;;17.90;80.80;;;;;;5052875;28;20308;-69
2022/10/09 09:50:42;;;;;;;2.33;1.98;;;17.90;80.90;;;;;;5054079;28;20178;-70
2022/10/09 09:53:30;;;;;;;2.00;1.77;;;17.90;80.80;;;;;;5069105;28;20230;-71
2022/10/09 09:55:56;;;;;;;3.05;2.00;;;17.90;80.60;;;;;;5069336;28;20186;-71
2022/10/09 09:58:43;;;;;;;2.90;1.98;;;17.90;80.80;;;;;;5052922;28;20206;-71
2022/10/09 10:01:26;;;;;;;4.45;2.03;;;17.90;80.70;;;;;;5037176;28;20207;-70
2022/10/09 10:03:56;;;;;;;2.33;2.13;;;17.90;80.50;;;;;;5036034;28;20325;-71
2022/10/09 10:06:28;;;;;;;1.85;1.75;;;17.90;80.30;;;;;;5052705;28;20205;-71
2022/10/09 10:08:59;;;;;;;2.35;1.70;;;17.90;80.50;;;;;;5036217;28;20210;-70
2022/10/09 10:11:25;;;;;;;2.47;1.73;;;17.90;80.60;;;;;;5035850;28;20182;-70
2022/10/09 10:13:51;;;;;;;1.85;1.75;;;17.90;80.70;;;;;;5036163;28;20269;-71
2022/10/09 10:16:28;;;;;;;1.90;1.80;;;17.90;80.70;;;;;;5069301;28;20254;-71
2022/10/09 10:18:56;;;;;;;2.53;2.00;;;17.90;80.60;;;;;;5078010;22;20257;-67
2022/10/09 10:21:23;;;;;;;2.30;1.80;;;17.90;80.40;;;;;;5033924;28;20193;-67
2022/10/09 10:24:04;;;;;;;1.77;1.67;;;17.90;80.50;;;;;;5035541;28;20186;-67
2022/10/09 10:26:51;;;;;;;2.67;1.60;;;17.90;80.50;;;;;;5035508;28;20174;-67
2022/10/09 10:29:30;;;;;;;1.55;1.45;;;17.90;80.40;;;;;;5029800;28;20200;-67
2022/10/09 10:32:14;;;;;;;1.63;1.50;;;17.90;80.60;;;;;;4998102;28;20231;-67
2022/10/09 10:34:55;;;;;;;2.10;1.90;;;17.90;80.60;;;;;;5006228;28;20211;-67
2022/10/09 10:37:59;;;;;;;2.03;1.83;;;17.90;80.50;;;;;;5024420;28;20563;-67
2022/10/09 10:40:46;;;;;;;1.60;1.50;;;17.90;80.00;;;;;;5009962;28;20222;-67
2022/10/09 10:43:47;;;;;;;2.28;1.90;;;17.90;80.20;;;;;;5014811;28;20191;-67
2022/10/09 10:46:47;;;;;;;2.95;1.67;;;17.90;80.20;;;;;;5014150;28;20245;-67
2022/10/09 10:49:21;;;;;;;2.92;1.80;;;17.90;80.30;;;;;;5011324;28;20212;-67
2022/10/09 10:52:42;;;;;;;3.13;2.20;;;17.90;80.30;;;;;;5009249;28;20265;-68
2022/10/09 10:55:58;;;;;;;2.22;1.70;;;17.90;80.20;;;;;;4935492;28;20251;-66
2022/10/09 10:59:02;;;;;;;1.85;1.75;;;18.00;80.30;;;;;;5008935;28;20188;-66
2022/10/09 11:01:47;;;;;;;2.28;1.67;;;17.90;80.20;;;;;;4999478;28;20592;-68
2022/10/09 11:05:13;;;;;;;5.88;1.92;;;17.90;80.10;;;;;;4976312;28;20200;-67
2022/10/09 11:07:51;;;;;;;1.30;1.20;;;18.00;80.40;;;;;;4972451;28;20223;-66
2022/10/09 11:10:57;;;;;;;3.17;1.55;;;18.00;80.50;;;;;;5013876;28;20256;-67
2022/10/09 11:13:41;;;;;;;3.90;1.83;;;18.00;80.40;;;;;;5011325;28;20171;-67
2022/10/09 11:16:33;;;;;;;1.77;1.67;;;18.00;80.20;;;;;;4990586;28;20183;-67
2022/10/09 11:19:34;;;;;;;1.83;1.55;;;18.00;80.40;;;;;;4997855;28;20211;-67
2022/10/09 11:22:22;;;;;;;2.10;1.70;;;18.00;80.40;;;;;;5013721;28;20187;-66
2022/10/09 11:25:16;;;;;;;2.38;1.60;;;18.00;80.10;;;;;;4997929;28;20643;-66
2022/10/09 11:28:01;;;;;;;1.70;1.55;;;17.90;80.00;;;;;;5009933;28;20226;-67
2022/10/09 11:30:38;;;;;;;1.50;1.40;;;18.00;80.00;;;;;;5009284;28;20203;-67
2022/10/09 11:33:20;;;;;;;2.35;1.80;;;18.00;80.10;;;;;;5013598;28;20190;-67
2022/10/09 11:36:15;;;;;;;1.60;1.40;;;18.00;80.20;;;;;;4994108;28;20235;-67
2022/10/09 11:38:57;;;;;;;2.10;1.92;;;18.00;80.20;;;;;;5003969;28;20194;-67
2022/10/09 11:41:26;;;;;;;2.33;1.77;;;18.00;80.10;;;;;;4994383;28;20558;-67
2022/10/09 11:44:29;;;;;;;2.42;1.65;;;18.00;80.10;;;;;;4994331;28;20226;-67
2022/10/09 11:47:04;;;;;;;1.85;1.70;;;18.00;80.30;;;;;;4993892;28;20714;-67
2022/10/09 11:49:54;;;;;;;1.65;1.55;;;18.00;81.10;;;;;;4994401;28;20582;-67
2022/10/09 11:52:58;;;;;;;2.92;1.70;;;18.00;80.10;;;;;;5010380;28;20207;-67
2022/10/09 11:55:31;;;;;;;1.60;1.45;;;18.00;80.00;;;;;;5014716;28;20192;-67
2022/10/09 11:58:23;;;;;;;1.48;1.38;;;18.00;80.20;;;;;;4993877;28;20637;-67
2022/10/09 12:00:54;;;;;;;1.55;1.45;;;17.90;80.40;;;;;;5006001;28;20215;-67
2022/10/09 12:03:32;;;;;;;1.45;1.35;;;17.90;80.40;;;;;;5014147;28;20288;-67
2022/10/09 12:06:06;;;;;;;2.25;1.27;;;18.00;80.30;;;;;;4981702;28;20222;-68
2022/10/09 12:08:32;;;;;;;3.05;1.63;;;18.00;80.30;;;;;;4998030;28;20308;-66
2022/10/09 12:11:11;;;;;;;1.83;1.73;;;18.00;80.30;;;;;;4981929;28;20215;-67
2022/10/09 12:13:43;;;;;;;1.48;1.38;;;18.00;80.50;;;;;;5015493;28;20168;-66
2022/10/09 12:16:31;;;;;;;1.55;1.45;;;18.00;80.20;;;;;;5014225;28;20213;-65
2022/10/09 12:19:01;;;;;;;2.67;1.80;;;18.00;80.30;;;;;;4997582;28;20219;-65
2022/10/09 12:21:36;;;;;;;1.95;1.38;;;18.00;80.30;;;;;;5000451;28;20226;-67
2022/10/09 12:24:05;;;;;;;1.67;1.45;;;18.00;80.80;;;;;;5008929;28;20193;-67
2022/10/09 12:26:34;;;;;;;2.00;1.70;;;18.00;80.50;;;;;;5009509;28;20207;-68
2022/10/09 12:29:03;;;;;;;1.50;1.35;;;18.00;80.50;;;;;;5009720;28;20204;-67
2022/10/09 12:31:37;;;;;;;1.60;1.50;;;18.00;81.10;;;;;;5013998;28;20184;-68
2022/10/09 12:34:16;;;;;;;2.08;1.67;;;18.00;80.50;;;;;;5014571;28;20180;-65
2022/10/09 12:36:42;;;;;;;1.70;1.60;;;18.00;80.30;;;;;;5024392;28;20179;-67
2022/10/09 12:39:21;;;;;;;2.42;1.58;;;18.00;80.40;;;;;;5001548;28;20199;-68
2022/10/09 12:41:53;;;;;;;1.90;1.52;;;18.00;80.30;;;;;;5035044;28;20175;-68
2022/10/09 12:44:39;;;;;;;2.70;1.80;;;18.00;80.20;;;;;;5001544;28;20257;-68
2022/10/09 12:47:15;;;;;;;1.40;1.30;;;18.00;80.40;;;;;;5034891;28;20242;-68
2022/10/09 12:49:40;;;;;;;1.30;1.20;;;18.00;80.30;;;;;;5009004;28;20289;-67
2022/10/09 12:52:14;;;;;;;1.60;1.50;;;18.00;80.20;;;;;;5034939;28;20175;-67
2022/10/09 12:54:43;;;;;;;1.80;1.42;;;18.00;80.40;;;;;;5001492;28;20187;-65
2022/10/09 12:57:15;;;;;;;1.92;1.58;;;18.00;80.50;;;;;;5035277;28;20167;-68
2022/10/09 12:59:44;;;;;;;2.55;1.50;;;18.00;80.40;;;;;;5009174;28;20234;-68
2022/10/09 13:02:15;;;;;;;2.33;1.23;;;18.00;80.50;;;;;;5010995;28;20195;-68
2022/10/09 13:04:54;;;;;;;1.48;1.38;;;18.00;80.80;;;;;;4989569;28;20208;-66
2022/10/09 13:07:23;;;;;;;1.45;1.35;;;18.00;80.60;;;;;;5022500;28;20211;-68
2022/10/09 13:10:00;;;;;;;1.42;1.33;;;18.00;80.60;;;;;;5017117;28;20211;-67
2022/10/09 13:12:28;;;;;;;1.67;1.40;;;18.00;80.70;;;;;;5032268;28;20377;-67
2022/10/09 13:15:00;;;;;;;1.98;1.52;;;18.00;80.60;;;;;;5034818;28;20191;-68
2022/10/09 13:17:40;;;;;;;1.55;1.45;;;18.00;80.40;;;;;;5000907;28;20195;-68
2022/10/09 13:20:15;;;;;;;2.45;1.50;;;18.00;80.40;;;;;;4981166;28;20227;-65
2022/10/09 13:22:55;;;;;;;2.03;1.40;;;18.00;80.50;;;;;;5031893;28;20190;-67